Time;durP1;ratioP1;P1;durP2;ratioP2;P2;SDS_P1;SDS_P2;PMS_P1;PMS_P2;Temp;Humidity;BMP_temperature;BMP_pressure;BME280_temperature;BME280_humidity;BME280_pressure;Samples;Min_cycle;Max_cycle;Signal;HPM_P1;HPM_P2
2022/04/04 00:00:41;;;;;;;3.50;2.95;;;3.20;99.90;;;;;;5046665;28;20024;-42
2022/04/04 00:03:07;;;;;;;6.70;2.70;;;3.20;99.90;;;;;;5046788;28;20017;-42
2022/04/04 00:05:34;;;;;;;3.20;2.90;;;3.10;99.90;;;;;;5045866;28;20405;-43
2022/04/04 00:08:00;;;;;;;3.17;2.50;;;3.10;99.90;;;;;;5046439;28;20079;-39
2022/04/04 00:10:25;;;;;;;5.10;3.50;;;3.10;99.90;;;;;;5047114;28;20451;-42
2022/04/04 00:12:51;;;;;;;3.17;2.78;;;3.10;99.90;;;;;;5045364;28;20546;-41
2022/04/04 00:15:17;;;;;;;3.50;3.05;;;3.00;99.90;;;;;;5046896;28;20361;-41
2022/04/04 00:17:42;;;;;;;4.13;2.72;;;3.10;99.90;;;;;;5045985;28;20372;-42
2022/04/04 00:20:10;;;;;;;4.50;3.00;;;3.00;99.90;;;;;;5046209;28;20057;-41
2022/04/04 00:22:35;;;;;;;4.10;3.53;;;3.00;99.90;;;;;;5046763;28;20025;-39
2022/04/04 00:25:01;;;;;;;3.70;3.33;;;2.90;99.90;;;;;;5045874;28;20025;-39
2022/04/04 00:27:27;;;;;;;3.42;2.92;;;2.90;99.90;;;;;;5045785;28;20112;-40
2022/04/04 00:29:52;;;;;;;3.30;2.90;;;2.90;99.90;;;;;;5045990;28;20029;-41
2022/04/04 00:32:18;;;;;;;4.88;3.10;;;2.90;99.90;;;;;;5046421;28;20491;-42
2022/04/04 00:34:43;;;;;;;5.60;3.08;;;2.90;99.90;;;;;;5045635;28;20063;-43
2022/04/04 00:37:09;;;;;;;3.13;2.85;;;2.80;99.90;;;;;;5046347;28;20103;-42
2022/04/04 00:39:34;;;;;;;3.30;2.95;;;2.80;99.90;;;;;;5046164;28;20040;-42
2022/04/04 00:42:00;;;;;;;3.75;3.17;;;2.80;99.90;;;;;;5044928;28;20527;-42
2022/04/04 00:44:26;;;;;;;4.10;3.35;;;2.80;99.90;;;;;;5046496;28;20540;-40
2022/04/04 00:46:54;;;;;;;3.58;3.10;;;2.80;99.90;;;;;;5045990;28;20025;-41
2022/04/04 00:49:20;;;;;;;4.35;2.97;;;2.80;99.90;;;;;;5045439;28;20059;-43
2022/04/04 00:51:45;;;;;;;4.25;3.40;;;2.80;99.90;;;;;;5046149;28;20056;-40
2022/04/04 00:54:11;;;;;;;3.55;3.10;;;2.80;99.90;;;;;;5044729;28;20495;-41
2022/04/04 00:56:38;;;;;;;3.80;3.33;;;2.80;99.90;;;;;;5045956;28;20098;-42
2022/04/04 00:59:05;;;;;;;3.95;3.10;;;2.70;99.90;;;;;;5045235;28;20025;-42
2022/04/04 01:01:31;;;;;;;4.65;3.30;;;2.70;99.90;;;;;;5025505;28;20112;-42
2022/04/04 01:03:57;;;;;;;4.22;3.55;;;2.70;99.90;;;;;;5039606;28;20087;-41
2022/04/04 01:06:22;;;;;;;5.82;3.75;;;2.70;99.90;;;;;;5045562;28;20017;-40
2022/04/04 01:08:48;;;;;;;4.72;3.40;;;2.70;99.90;;;;;;5044383;28;20104;-41
2022/04/04 01:11:13;;;;;;;5.90;4.00;;;2.70;99.90;;;;;;5046404;28;20469;-42
2022/04/04 01:13:47;;;;;;;6.20;4.25;;;2.70;99.90;;;;;;5045640;28;20009;-44
2022/04/04 01:16:12;;;;;;;4.95;3.70;;;2.70;99.90;;;;;;5045084;28;20028;-41
2022/04/04 01:18:41;;;;;;;6.25;4.03;;;2.70;99.90;;;;;;5045079;28;20029;-42
2022/04/04 01:21:07;;;;;;;5.18;3.33;;;2.60;99.90;;;;;;5045673;28;20102;-40
2022/04/04 01:23:41;;;;;;;6.28;3.70;;;2.60;99.90;;;;;;5044381;28;20024;-40
2022/04/04 01:26:09;;;;;;;5.13;4.10;;;2.70;99.90;;;;;;5035800;28;20037;-41
2022/04/04 01:28:34;;;;;;;5.25;3.92;;;2.70;99.90;;;;;;5045490;28;20187;-42
2022/04/04 01:31:00;;;;;;;5.30;4.20;;;2.70;99.90;;;;;;5043816;28;20776;-42
2022/04/04 01:33:26;;;;;;;4.70;3.90;;;2.70;99.90;;;;;;5045433;28;20063;-41
2022/04/04 01:35:52;;;;;;;4.38;3.53;;;2.70;99.90;;;;;;5044499;28;20522;-42
2022/04/04 01:38:17;;;;;;;3.63;3.30;;;2.70;99.90;;;;;;5045330;28;20104;-41
2022/04/04 01:40:43;;;;;;;4.05;3.45;;;2.60;99.90;;;;;;5044370;28;20129;-42
2022/04/04 01:43:09;;;;;;;4.82;3.63;;;2.70;99.90;;;;;;5045161;28;20036;-40
2022/04/04 01:48:18;;;;;;;5.00;3.90;;;2.70;99.90;;;;;;5043449;28;20071;-40
2022/04/04 01:50:44;;;;;;;4.57;4.03;;;2.70;99.90;;;;;;5044079;28;20571;-41
2022/04/04 01:53:29;;;;;;;5.30;4.20;;;2.70;99.90;;;;;;5045257;28;20025;-42
2022/04/04 01:56:00;;;;;;;5.75;4.85;;;2.70;99.90;;;;;;5043822;28;20802;-40
2022/04/04 01:58:26;;;;;;;6.80;5.13;;;2.70;99.90;;;;;;5028885;28;20025;-41
2022/04/04 02:00:53;;;;;;;6.10;5.03;;;2.80;99.90;;;;;;5042918;28;20079;-41
2022/04/04 02:03:19;;;;;;;6.82;5.07;;;2.80;99.90;;;;;;5049197;28;20114;-43
2022/04/04 02:05:44;;;;;;;7.28;4.82;;;2.80;99.90;;;;;;5047884;28;20423;-41
2022/04/04 02:08:10;;;;;;;6.55;5.22;;;2.80;99.90;;;;;;5048950;28;20474;-39
2022/04/04 02:10:35;;;;;;;6.47;4.88;;;2.80;99.90;;;;;;5048761;28;20113;-41
2022/04/04 02:13:01;;;;;;;5.10;4.45;;;2.80;99.90;;;;;;5047892;28;20028;-41
2022/04/04 02:15:26;;;;;;;5.47;4.57;;;2.80;99.90;;;;;;5049118;28;20687;-41
2022/04/04 02:17:52;;;;;;;5.60;4.82;;;2.90;99.90;;;;;;5049033;28;20420;-40
2022/04/04 02:20:18;;;;;;;5.47;4.70;;;2.90;99.90;;;;;;5048132;28;20036;-42
2022/04/04 02:22:44;;;;;;;6.07;4.20;;;2.90;99.90;;;;;;5048541;28;20032;-42
2022/04/04 02:25:10;;;;;;;5.25;4.35;;;3.00;99.90;;;;;;5048746;28;20426;-43
2022/04/04 02:27:36;;;;;;;5.72;4.80;;;3.00;99.90;;;;;;5048181;28;20032;-41
2022/04/04 02:30:03;;;;;;;8.75;5.05;;;3.00;99.90;;;;;;5048286;28;20037;-40
2022/04/04 02:32:28;;;;;;;6.00;5.05;;;3.00;99.90;;;;;;5047627;28;20461;-41
2022/04/04 02:34:53;;;;;;;6.75;5.57;;;3.00;99.90;;;;;;5048274;28;20032;-41
2022/04/04 02:37:19;;;;;;;6.78;5.40;;;3.10;99.90;;;;;;5048825;28;20025;-42
2022/04/04 02:39:44;;;;;;;5.82;5.22;;;3.10;99.90;;;;;;5047499;28;20087;-42
2022/04/04 02:42:10;;;;;;;7.72;5.90;;;3.10;99.90;;;;;;5048346;28;20112;-40
2022/04/04 02:44:36;;;;;;;7.15;5.65;;;3.10;99.90;;;;;;5048602;28;20025;-43
2022/04/04 02:47:02;;;;;;;6.38;5.55;;;3.10;99.90;;;;;;5047660;28;20052;-40
2022/04/04 02:49:30;;;;;;;6.72;5.72;;;3.10;99.90;;;;;;5048560;28;20036;-40
2022/04/04 02:51:57;;;;;;;6.30;5.05;;;3.20;99.90;;;;;;5047353;28;20048;-42
2022/04/04 02:54:22;;;;;;;6.45;5.47;;;3.20;99.90;;;;;;5047267;28;20044;-40
2022/04/04 02:56:48;;;;;;;9.75;6.60;;;3.20;99.90;;;;;;5046847;28;20057;-41
2022/04/04 02:59:13;;;;;;;7.88;6.30;;;3.20;99.90;;;;;;5047767;28;20390;-43
2022/04/04 03:01:41;;;;;;;10.10;6.50;;;3.30;99.90;;;;;;5047637;28;20033;-43
2022/04/04 03:04:06;;;;;;;7.53;5.53;;;3.30;99.90;;;;;;5047922;28;20061;-42
2022/04/04 03:06:32;;;;;;;9.73;6.50;;;3.30;99.90;;;;;;5047477;28;20450;-41
2022/04/04 03:08:57;;;;;;;8.05;6.47;;;3.30;99.90;;;;;;5046306;28;20029;-40
2022/04/04 03:11:23;;;;;;;8.02;6.57;;;3.30;99.90;;;;;;5048133;28;20029;-41
2022/04/04 03:13:48;;;;;;;7.80;6.45;;;3.30;99.90;;;;;;5047087;28;20048;-42
2022/04/04 03:16:14;;;;;;;7.63;6.45;;;3.30;99.90;;;;;;5047539;28;20029;-42
2022/04/04 03:18:41;;;;;;;9.05;7.15;;;3.40;99.90;;;;;;5047433;28;20057;-44
2022/04/04 03:21:07;;;;;;;9.60;7.53;;;3.40;99.90;;;;;;5047595;28;20120;-41
2022/04/04 03:23:33;;;;;;;8.90;7.57;;;3.30;99.90;;;;;;5046866;28;20029;-41
2022/04/04 03:25:59;;;;;;;7.88;6.53;;;3.30;99.90;;;;;;5047007;28;20029;-41
2022/04/04 03:28:25;;;;;;;9.90;7.43;;;3.30;99.90;;;;;;5047158;28;20151;-41
2022/04/04 03:30:51;;;;;;;8.52;7.63;;;3.40;99.90;;;;;;5046082;28;20140;-41
2022/04/04 03:33:17;;;;;;;9.02;7.00;;;3.40;99.90;;;;;;5047449;28;20049;-40
2022/04/04 03:35:43;;;;;;;9.23;7.18;;;3.40;99.90;;;;;;5047213;28;20029;-42
2022/04/04 03:38:11;;;;;;;8.63;7.55;;;3.40;99.90;;;;;;5046571;28;20032;-42
2022/04/04 03:40:40;;;;;;;8.63;7.43;;;3.30;99.90;;;;;;5047733;28;20033;-43
2022/04/04 03:43:05;;;;;;;9.38;7.28;;;3.40;99.90;;;;;;5045667;28;20648;-42
2022/04/04 03:45:31;;;;;;;8.45;6.72;;;3.40;99.90;;;;;;5046986;28;20029;-44
2022/04/04 03:48:00;;;;;;;8.70;6.88;;;3.40;99.90;;;;;;5046871;28;20021;-42
2022/04/04 03:50:27;;;;;;;8.77;7.32;;;3.40;99.90;;;;;;5043260;28;20047;-42
2022/04/04 03:52:55;;;;;;;10.13;7.50;;;3.40;99.90;;;;;;5046719;28;20036;-42
2022/04/04 03:55:23;;;;;;;8.95;7.40;;;3.40;99.90;;;;;;5047230;28;20029;-43
2022/04/04 03:57:51;;;;;;;9.27;7.70;;;3.40;99.90;;;;;;5046090;28;20051;-42
2022/04/04 04:00:22;;;;;;;8.85;7.22;;;3.40;99.90;;;;;;5046753;28;20028;-40
2022/04/04 04:02:47;;;;;;;7.40;6.70;;;3.40;99.90;;;;;;5046850;28;20021;-41
2022/04/04 04:05:13;;;;;;;9.48;6.82;;;3.40;99.90;;;;;;5046825;28;20024;-42
2022/04/04 04:07:40;;;;;;;8.55;6.53;;;3.40;99.90;;;;;;5047469;28;20105;-42
2022/04/04 04:10:06;;;;;;;10.15;7.38;;;3.40;99.90;;;;;;5046308;28;20041;-42
2022/04/04 04:12:31;;;;;;;9.75;7.47;;;3.50;99.90;;;;;;5049016;28;20048;-41
2022/04/04 04:14:57;;;;;;;7.90;7.10;;;3.50;99.90;;;;;;5049203;28;20040;-40
2022/04/04 04:17:24;;;;;;;8.60;6.80;;;3.60;99.90;;;;;;5049489;28;20057;-40
2022/04/04 04:22:35;;;;;;;9.80;7.20;;;3.60;99.90;;;;;;5046945;28;20132;-40
2022/04/04 04:25:01;;;;;;;9.55;7.63;;;3.60;99.90;;;;;;5045668;28;20104;-41
2022/04/04 04:27:28;;;;;;;9.48;7.40;;;3.70;99.90;;;;;;5046764;28;20017;-39
2022/04/04 04:29:53;;;;;;;9.93;7.68;;;3.60;99.90;;;;;;5045833;28;20086;-42
2022/04/04 04:32:19;;;;;;;9.68;8.05;;;3.70;99.90;;;;;;5045670;28;20021;-41
2022/04/04 04:34:48;;;;;;;8.82;6.90;;;3.70;99.90;;;;;;5045561;28;20456;-41
2022/04/04 04:37:17;;;;;;;7.50;6.75;;;3.70;99.90;;;;;;5046125;28;20028;-42
2022/04/04 04:39:43;;;;;;;9.52;7.18;;;3.70;99.90;;;;;;5045004;28;20040;-41
2022/04/04 04:42:09;;;;;;;9.60;7.53;;;3.70;99.90;;;;;;5046572;28;20025;-42
2022/04/04 04:44:34;;;;;;;11.27;7.05;;;3.70;99.90;;;;;;5045717;28;20102;-41
2022/04/04 04:47:00;;;;;;;8.52;7.00;;;3.70;99.90;;;;;;5044355;28;20144;-42
2022/04/04 04:49:26;;;;;;;10.38;7.10;;;3.80;99.90;;;;;;5046537;28;20079;-41
2022/04/04 04:51:52;;;;;;;9.07;7.15;;;3.80;99.90;;;;;;5045220;28;20024;-42
2022/04/04 04:54:18;;;;;;;8.20;7.00;;;3.80;99.90;;;;;;5045341;28;20025;-40
2022/04/04 04:56:43;;;;;;;10.50;7.13;;;3.90;99.90;;;;;;5044747;28;20142;-40
2022/04/04 04:59:17;;;;;;;9.32;7.65;;;3.90;99.90;;;;;;5046199;28;20029;-43
2022/04/04 05:01:43;;;;;;;9.75;7.40;;;3.90;99.90;;;;;;5044301;28;20393;-42
2022/04/04 05:04:08;;;;;;;9.73;7.60;;;4.00;99.90;;;;;;5045843;28;20039;-42
2022/04/04 05:06:34;;;;;;;10.13;7.57;;;4.00;99.90;;;;;;5046169;28;20813;-42
2022/04/04 05:09:00;;;;;;;10.10;7.43;;;4.10;99.90;;;;;;5043983;28;20025;-41
2022/04/04 05:11:26;;;;;;;11.38;8.63;;;4.10;99.90;;;;;;5045768;28;20060;-40
2022/04/04 05:13:51;;;;;;;9.07;7.65;;;4.10;99.90;;;;;;5045511;28;20036;-42
2022/04/04 05:16:17;;;;;;;10.90;7.78;;;4.20;99.90;;;;;;5044851;28;20441;-40
2022/04/04 05:18:44;;;;;;;8.88;7.05;;;4.20;99.90;;;;;;5045301;28;20028;-41
2022/04/04 05:21:11;;;;;;;10.60;7.47;;;4.20;99.90;;;;;;5046008;28;20469;-41
2022/04/04 05:23:36;;;;;;;10.80;7.82;;;4.30;99.90;;;;;;5044892;28;20037;-42
2022/04/04 05:26:04;;;;;;;9.80;7.22;;;4.30;99.90;;;;;;5044916;28;20033;-41
2022/04/04 05:28:29;;;;;;;8.77;6.90;;;4.40;99.90;;;;;;5044564;28;20609;-41
2022/04/04 05:30:56;;;;;;;9.63;7.40;;;4.40;99.90;;;;;;5044733;28;20044;-42
2022/04/04 05:33:22;;;;;;;9.85;7.60;;;4.50;99.90;;;;;;5045075;28;20129;-42
2022/04/04 05:35:48;;;;;;;9.05;7.60;;;4.50;99.90;;;;;;5044809;28;20032;-43
2022/04/04 05:38:14;;;;;;;10.82;7.78;;;4.50;99.90;;;;;;5045550;28;20404;-42
2022/04/04 05:40:41;;;;;;;8.95;7.07;;;4.50;99.90;;;;;;5045431;28;20033;-42
2022/04/04 05:43:09;;;;;;;9.05;7.53;;;4.60;99.90;;;;;;5042344;28;20037;-40
2022/04/04 05:45:35;;;;;;;12.15;8.32;;;4.60;99.90;;;;;;5041633;28;20029;-42
2022/04/04 05:48:02;;;;;;;9.05;7.18;;;4.70;99.90;;;;;;5043471;28;20024;-42
2022/04/04 05:50:28;;;;;;;9.32;7.45;;;4.70;99.90;;;;;;5043976;28;20123;-39
2022/04/04 05:52:54;;;;;;;9.68;6.95;;;4.80;99.90;;;;;;5043745;28;20503;-40
2022/04/04 05:55:19;;;;;;;10.35;8.25;;;4.80;99.90;;;;;;5044221;28;20025;-41
2022/04/04 05:57:45;;;;;;;8.45;7.05;;;4.90;99.90;;;;;;5043081;28;20045;-43
2022/04/04 06:00:13;;;;;;;10.40;8.02;;;4.90;99.90;;;;;;5044305;28;20033;-43
2022/04/04 06:02:40;;;;;;;13.57;7.43;;;4.90;99.90;;;;;;5044293;28;20075;-43
2022/04/04 06:05:07;;;;;;;9.80;7.20;;;5.00;99.90;;;;;;5043890;28;20031;-41
2022/04/04 06:07:37;;;;;;;11.10;7.88;;;5.00;99.90;;;;;;5044212;28;20762;-42
2022/04/04 06:10:04;;;;;;;10.98;7.68;;;5.10;99.90;;;;;;5039711;28;20626;-41
2022/04/04 06:12:30;;;;;;;9.70;7.60;;;5.10;99.90;;;;;;5043859;28;20089;-42
2022/04/04 06:14:55;;;;;;;11.27;8.38;;;5.10;99.90;;;;;;5050088;28;20036;-41
2022/04/04 06:17:21;;;;;;;10.93;7.65;;;5.20;99.90;;;;;;5044825;28;20405;-41
2022/04/04 06:19:46;;;;;;;10.07;7.57;;;5.20;99.90;;;;;;5042647;28;20153;-40
2022/04/04 06:22:12;;;;;;;11.68;8.30;;;5.30;99.90;;;;;;5043808;28;20492;-42
2022/04/04 06:24:38;;;;;;;11.30;8.57;;;5.40;99.90;;;;;;5043121;28;20174;-42
2022/04/04 06:27:04;;;;;;;10.82;7.55;;;5.40;99.90;;;;;;5043819;28;20025;-43
2022/04/04 06:29:30;;;;;;;9.77;7.95;;;5.50;99.90;;;;;;5044292;28;20087;-41
2022/04/04 06:31:56;;;;;;;10.77;8.30;;;5.60;99.90;;;;;;5043238;28;20357;-45
2022/04/04 06:34:24;;;;;;;11.05;8.18;;;5.60;99.90;;;;;;5043413;28;20401;-41
2022/04/04 06:36:50;;;;;;;9.65;7.93;;;5.70;99.90;;;;;;5044246;28;20055;-42
2022/04/04 06:39:16;;;;;;;10.60;8.35;;;5.70;99.90;;;;;;5044890;28;20362;-41
2022/04/04 06:41:41;;;;;;;12.65;7.70;;;5.80;99.90;;;;;;5046202;28;20103;-43
2022/04/04 06:44:07;;;;;;;9.15;7.57;;;5.80;99.90;;;;;;5048754;28;20103;-42
2022/04/04 06:46:36;;;;;;;8.43;7.25;;;5.90;99.90;;;;;;5047808;28;20021;-41
2022/04/04 06:49:02;;;;;;;9.65;8.18;;;5.90;99.90;;;;;;5048212;28;20044;-40
2022/04/04 06:51:28;;;;;;;10.65;7.88;;;5.90;99.90;;;;;;5048814;28;20037;-42
2022/04/04 06:53:53;;;;;;;9.38;7.10;;;6.00;99.90;;;;;;5047338;28;20108;-42
2022/04/04 06:56:19;;;;;;;12.00;7.78;;;6.00;99.90;;;;;;5047927;28;20102;-42
2022/04/04 06:58:45;;;;;;;9.68;7.20;;;6.10;99.90;;;;;;5047522;28;20053;-43
2022/04/04 07:01:11;;;;;;;11.00;7.28;;;6.10;99.90;;;;;;5046726;28;20028;-42
2022/04/04 07:03:37;;;;;;;9.70;6.75;;;6.10;99.90;;;;;;5048251;28;20025;-42
2022/04/04 07:06:02;;;;;;;10.45;7.40;;;6.20;99.90;;;;;;5050985;28;20046;-41
2022/04/04 07:08:28;;;;;;;8.95;6.85;;;6.20;99.90;;;;;;5049707;28;20475;-41
2022/04/04 07:10:54;;;;;;;9.48;7.03;;;6.20;99.90;;;;;;5046575;28;20124;-43
2022/04/04 07:13:19;;;;;;;8.90;7.03;;;6.30;99.90;;;;;;5048035;28;20025;-41
2022/04/04 07:15:45;;;;;;;10.65;7.47;;;6.30;99.90;;;;;;5046232;28;20106;-42
2022/04/04 07:18:12;;;;;;;10.90;7.10;;;6.40;99.90;;;;;;5051601;28;20108;-42
2022/04/04 07:20:38;;;;;;;7.80;6.70;;;6.50;99.90;;;;;;5047782;28;20035;-40
2022/04/04 07:23:05;;;;;;;8.25;6.15;;;6.50;99.90;;;;;;5046407;28;20473;-42
2022/04/04 07:25:33;;;;;;;8.18;6.38;;;6.60;99.90;;;;;;5047442;28;20112;-44
2022/04/04 07:27:59;;;;;;;7.55;6.25;;;6.60;99.90;;;;;;5045610;28;20074;-41
2022/04/04 07:30:26;;;;;;;8.93;6.10;;;6.70;99.90;;;;;;5047241;28;20056;-43
2022/04/04 07:32:52;;;;;;;11.05;6.55;;;6.70;99.90;;;;;;5046288;28;20120;-40
2022/04/04 07:35:19;;;;;;;8.27;6.35;;;6.80;99.90;;;;;;5046964;28;20140;-43
2022/04/04 07:37:46;;;;;;;8.27;6.30;;;6.80;99.90;;;;;;5046538;28;20017;-42
2022/04/04 07:40:14;;;;;;;7.20;6.40;;;6.80;99.90;;;;;;5046877;28;20467;-42
2022/04/04 07:42:42;;;;;;;7.50;6.65;;;6.80;99.90;;;;;;5046675;28;20043;-43
2022/04/04 07:45:10;;;;;;;9.75;6.95;;;6.90;99.90;;;;;;5047092;28;20392;-41
2022/04/04 07:47:37;;;;;;;10.70;7.70;;;6.90;99.90;;;;;;5046858;28;20107;-40
2022/04/04 07:50:05;;;;;;;11.48;8.10;;;6.80;99.90;;;;;;5046157;28;20036;-41
2022/04/04 07:52:31;;;;;;;10.07;7.22;;;6.90;99.90;;;;;;5046703;28;20629;-41
2022/04/04 07:54:56;;;;;;;9.63;8.23;;;6.80;99.90;;;;;;5045330;28;20029;-42
2022/04/04 07:57:22;;;;;;;11.45;8.40;;;6.70;99.90;;;;;;5045637;28;20085;-42
2022/04/04 07:59:50;;;;;;;12.38;8.70;;;6.70;99.90;;;;;;5045892;28;20036;-41
2022/04/04 08:02:17;;;;;;;9.20;8.20;;;6.70;99.90;;;;;;5047167;28;20032;-42
2022/04/04 08:04:42;;;;;;;11.10;8.35;;;6.70;99.90;;;;;;5045678;28;20032;-43
2022/04/04 08:07:11;;;;;;;13.30;8.90;;;6.70;99.90;;;;;;5046883;28;20021;-43
2022/04/04 08:09:37;;;;;;;12.75;9.05;;;6.70;99.90;;;;;;5047074;28;20036;-41
2022/04/04 08:12:03;;;;;;;11.35;8.73;;;6.60;99.90;;;;;;5045910;28;20028;-41
2022/04/04 08:14:31;;;;;;;12.23;9.05;;;6.60;99.90;;;;;;5046994;28;20036;-41
2022/04/04 08:16:57;;;;;;;10.68;8.73;;;6.60;99.90;;;;;;5046036;28;20147;-42
2022/04/04 08:19:22;;;;;;;9.68;8.48;;;6.60;99.90;;;;;;5045667;28;20551;-41
2022/04/04 08:21:48;;;;;;;11.98;8.70;;;6.60;99.90;;;;;;5046857;28;20035;-42
2022/04/04 08:24:14;;;;;;;12.27;9.27;;;6.60;99.90;;;;;;5045543;28;20078;-42
2022/04/04 08:26:40;;;;;;;12.40;9.20;;;6.60;99.90;;;;;;5047156;28;20040;-45
2022/04/04 08:29:08;;;;;;;11.38;9.18;;;6.60;99.90;;;;;;5047112;28;20024;-41
2022/04/04 08:31:34;;;;;;;12.70;9.00;;;6.60;99.90;;;;;;5046195;28;20067;-42
2022/04/04 08:34:00;;;;;;;12.73;8.98;;;6.60;99.90;;;;;;5044306;28;20592;-43
2022/04/04 08:36:26;;;;;;;9.25;8.32;;;6.70;99.90;;;;;;5045941;28;20037;-41
2022/04/04 08:38:51;;;;;;;12.05;8.98;;;6.70;99.90;;;;;;5044915;28;20025;-43
2022/04/04 08:41:18;;;;;;;12.85;9.20;;;6.70;99.90;;;;;;5046917;28;20503;-38
2022/04/04 08:43:49;;;;;;;12.18;8.80;;;6.80;99.90;;;;;;5045643;28;20021;-41
2022/04/04 08:46:16;;;;;;;13.52;9.40;;;6.80;99.90;;;;;;5045209;28;20545;-41
2022/04/04 08:48:43;;;;;;;11.02;9.02;;;6.90;99.90;;;;;;5044489;28;20029;-42
2022/04/04 08:51:16;;;;;;;11.02;9.13;;;6.90;99.90;;;;;;5046120;28;20071;-41
2022/04/04 08:53:41;;;;;;;10.55;9.02;;;7.00;99.90;;;;;;5044608;28;20028;-38
2022/04/04 08:56:11;;;;;;;12.57;8.68;;;6.90;99.90;;;;;;5045784;28;20405;-43
2022/04/04 08:58:37;;;;;;;12.02;9.38;;;6.90;99.90;;;;;;5045844;28;20363;-42
2022/04/04 09:01:06;;;;;;;13.00;9.35;;;7.00;99.90;;;;;;5044318;28;20481;-41
2022/04/04 09:03:32;;;;;;;9.70;8.65;;;7.00;99.90;;;;;;5046009;28;20021;-42
2022/04/04 09:06:00;;;;;;;12.52;8.88;;;7.00;99.90;;;;;;5044927;28;20029;-41
2022/04/04 09:08:29;;;;;;;13.35;9.38;;;7.00;99.90;;;;;;5045106;28;20028;-42
2022/04/04 09:10:57;;;;;;;14.20;10.57;;;7.00;99.90;;;;;;5045385;28;20086;-42
2022/04/04 09:13:25;;;;;;;16.40;10.52;;;7.00;99.90;;;;;;5044967;28;20546;-41
2022/04/04 09:15:54;;;;;;;14.68;10.10;;;6.90;99.90;;;;;;5045148;28;20095;-42
2022/04/04 09:18:46;;;;;;;12.98;10.02;;;6.80;99.90;;;;;;5045567;28;20555;-41
2022/04/04 09:21:29;;;;;;;14.68;10.50;;;6.80;99.90;;;;;;5045004;28;20025;-41
2022/04/04 09:24:03;;;;;;;;;;;6.70;99.90;;;;;;5045810;28;20128;-41
2022/04/04 09:26:36;;;;;;;14.13;9.75;;;6.70;99.90;;;;;;5044833;28;20000;-41
2022/04/04 09:29:22;;;;;;;13.18;10.13;;;6.70;99.90;;;;;;5044292;28;20021;-42
2022/04/04 09:32:05;;;;;;;12.43;10.20;;;6.60;99.90;;;;;;5041320;28;20074;-43
2022/04/04 09:35:01;;;;;;;12.23;10.40;;;6.60;99.90;;;;;;5045144;28;20036;-40
2022/04/04 09:37:29;;;;;;;11.30;10.10;;;6.60;99.90;;;;;;5034345;28;20469;-43
2022/04/04 09:40:15;;;;;;;13.80;9.93;;;6.50;99.90;;;;;;5044499;28;20028;-41
2022/04/04 09:42:43;;;;;;;14.48;11.00;;;6.50;99.90;;;;;;5033186;28;20037;-41
2022/04/04 09:45:12;;;;;;;14.10;11.43;;;6.50;99.90;;;;;;5043753;28;20033;-42
2022/04/04 09:48:01;;;;;;;13.38;11.35;;;6.40;99.90;;;;;;5043700;28;20064;-43
2022/04/04 09:50:38;;;;;;;13.02;11.05;;;6.40;99.90;;;;;;5043065;28;20051;-41
2022/04/04 09:53:09;;;;;;;14.52;11.35;;;6.30;99.90;;;;;;5033673;28;20025;-41
2022/04/04 09:55:37;;;;;;;13.88;10.82;;;6.30;99.90;;;;;;5028468;28;20021;-41
2022/04/04 09:58:06;;;;;;;13.73;10.68;;;6.30;99.90;;;;;;5042031;28;20021;-40
2022/04/04 10:00:35;;;;;;;14.10;10.55;;;6.30;99.90;;;;;;5043855;28;20376;-42
2022/04/04 10:03:02;;;;;;;12.48;10.43;;;6.30;99.90;;;;;;5043360;28;20286;-43
2022/04/04 10:05:28;;;;;;;11.07;9.45;;;6.30;99.90;;;;;;5044779;28;20487;-41
2022/04/04 10:07:56;;;;;;;13.30;9.85;;;6.40;99.90;;;;;;5043972;28;20025;-42
2022/04/04 10:10:30;;;;;;;15.98;10.80;;;6.40;99.90;;;;;;5044922;28;20057;-42
2022/04/04 10:12:56;;;;;;;14.73;10.45;;;6.40;99.90;;;;;;5044590;28;20032;-41
2022/04/04 10:15:24;;;;;;;12.48;9.85;;;6.40;99.90;;;;;;5045053;28;20091;-40
2022/04/04 10:17:50;;;;;;;11.85;10.45;;;6.40;99.90;;;;;;5045080;28;20427;-42
2022/04/04 10:20:17;;;;;;;11.45;9.63;;;6.40;99.90;;;;;;5048634;28;20048;-42
2022/04/04 10:22:47;;;;;;;14.50;11.13;;;6.50;99.90;;;;;;5047822;28;20017;-43
2022/04/04 10:25:15;;;;;;;16.83;11.63;;;6.40;99.90;;;;;;5045295;28;20029;-42
2022/04/04 10:27:46;;;;;;;11.52;10.15;;;6.50;99.90;;;;;;5046347;28;20027;-42
2022/04/04 10:30:11;;;;;;;11.15;9.13;;;6.40;99.90;;;;;;5047928;28;20601;-42
2022/04/04 10:32:50;;;;;;;12.55;8.48;;;6.40;99.90;;;;;;5047541;28;20025;-42
2022/04/04 10:35:22;;;;;;;11.93;9.57;;;6.40;99.90;;;;;;5049919;28;20036;-39
2022/04/04 10:37:49;;;;;;;13.35;9.82;;;6.40;99.90;;;;;;5048147;28;20107;-42
2022/04/04 10:40:30;;;;;;;10.73;9.30;;;6.40;99.90;;;;;;5048735;28;20146;-39
2022/04/04 10:43:11;;;;;;;10.60;9.50;;;6.40;99.90;;;;;;5047914;28;20029;-42
2022/04/04 10:46:01;;;;;;;13.05;9.82;;;6.40;99.90;;;;;;5047777;28;20028;-43
2022/04/04 10:48:42;;;;;;;10.98;9.57;;;6.50;99.90;;;;;;5047207;28;20104;-42
2022/04/04 10:51:23;;;;;;;10.82;8.93;;;6.40;99.90;;;;;;5027577;28;20037;-42
2022/04/04 10:53:55;;;;;;;9.40;8.35;;;6.40;99.90;;;;;;5042249;28;20052;-40
2022/04/04 10:56:25;;;;;;;9.63;8.63;;;6.50;99.90;;;;;;5027697;28;20096;-42
2022/04/04 10:59:19;;;;;;;10.93;8.65;;;6.50;99.90;;;;;;5042241;28;20025;-40
2022/04/04 11:01:49;;;;;;;9.20;8.15;;;6.50;99.90;;;;;;5027856;28;20396;-42
2022/04/04 11:04:28;;;;;;;9.68;8.45;;;6.50;99.90;;;;;;5045013;28;20074;-43
2022/04/04 11:10:05;;;;;;;10.27;8.32;;;6.50;99.90;;;;;;5046674;28;20577;-43
2022/04/04 11:12:54;;;;;;;8.20;7.40;;;6.50;99.90;;;;;;5048422;28;20404;-44
2022/04/04 11:16:02;;;;;;;8.68;7.53;;;6.50;99.90;;;;;;5047566;28;20025;-44
2022/04/04 11:18:53;;;;;;;7.60;6.80;;;6.60;99.90;;;;;;5044347;28;20045;-42
2022/04/04 11:22:01;;;;;;;8.25;6.97;;;6.60;99.90;;;;;;5047243;28;20021;-43
2022/04/04 11:24:51;;;;;;;7.97;7.18;;;6.60;99.90;;;;;;5045465;28;20114;-44
2022/04/04 11:27:18;;;;;;;7.72;6.82;;;6.60;99.90;;;;;;5042450;28;20040;-43
2022/04/04 11:30:06;;;;;;;7.95;6.82;;;6.70;99.90;;;;;;5045788;28;20070;-43
2022/04/04 11:32:40;;;;;;;8.02;6.40;;;6.70;99.90;;;;;;5045102;28;20079;-43
2022/04/04 11:35:10;;;;;;;7.90;6.70;;;6.80;99.90;;;;;;5051024;28;20061;-43
2022/04/04 11:37:48;;;;;;;8.02;6.68;;;6.80;99.90;;;;;;5047433;28;20186;-43
2022/04/04 11:40:19;;;;;;;7.85;6.80;;;6.80;99.90;;;;;;5046188;28;20055;-44
2022/04/04 11:42:47;;;;;;;7.75;6.60;;;6.80;99.90;;;;;;5046631;28;20021;-43
2022/04/04 11:45:43;;;;;;;7.35;6.60;;;6.90;99.90;;;;;;5047424;28;20742;-43
2022/04/04 11:48:25;;;;;;;7.18;6.30;;;6.90;99.90;;;;;;5030246;28;20388;-43
2022/04/04 11:51:19;;;;;;;7.25;6.35;;;6.90;99.90;;;;;;5046112;28;20072;-43
2022/04/04 11:53:48;;;;;;;6.03;5.40;;;6.90;99.90;;;;;;5066072;28;20678;-43
2022/04/04 11:56:23;;;;;;;7.25;6.22;;;7.00;99.90;;;;;;5047526;28;20135;-43
2022/04/04 11:58:54;;;;;;;7.53;5.90;;;7.00;99.90;;;;;;5046457;28;20024;-43
2022/04/04 12:01:20;;;;;;;9.57;6.30;;;7.00;99.90;;;;;;5046931;28;20147;-43
2022/04/04 12:03:49;;;;;;;7.30;6.10;;;7.00;99.90;;;;;;5046227;28;20108;-42
2022/04/04 12:06:15;;;;;;;7.22;6.25;;;7.00;99.90;;;;;;5046983;28;20025;-41
2022/04/04 12:09:03;;;;;;;7.43;6.60;;;7.10;99.90;;;;;;5046497;28;20029;-43
2022/04/04 12:11:29;;;;;;;7.38;6.63;;;7.10;99.90;;;;;;5046024;28;20037;-43
2022/04/04 12:13:56;;;;;;;8.65;7.72;;;7.10;99.90;;;;;;5046346;28;20095;-43
2022/04/04 12:16:23;;;;;;;8.15;7.20;;;7.10;99.90;;;;;;5045690;28;20048;-43
2022/04/04 12:19:09;;;;;;;8.50;7.63;;;7.10;99.90;;;;;;5046829;28;20024;-43
2022/04/04 12:21:34;;;;;;;8.40;7.60;;;7.20;99.90;;;;;;5046164;28;20082;-42
2022/04/04 12:26:47;;;;;;;7.28;6.57;;;7.20;99.90;;;;;;5045902;28;20163;-43
2022/04/04 12:29:14;;;;;;;7.47;6.63;;;7.20;99.90;;;;;;5046605;28;20112;-42
2022/04/04 12:32:01;;;;;;;8.45;5.82;;;7.20;99.90;;;;;;5045858;28;20037;-43
2022/04/04 12:34:27;;;;;;;6.50;5.90;;;7.20;99.90;;;;;;5046792;28;20040;-43
2022/04/04 12:36:59;;;;;;;5.85;5.30;;;7.30;99.90;;;;;;5046069;28;20017;-43
2022/04/04 12:39:24;;;;;;;6.43;5.82;;;7.30;99.90;;;;;;5045993;28;20021;-44
2022/04/04 12:41:54;;;;;;;6.18;5.43;;;7.30;99.90;;;;;;5044746;28;20048;-43
2022/04/04 12:44:23;;;;;;;6.43;5.47;;;7.30;99.90;;;;;;5046851;28;20032;-42
2022/04/04 12:47:09;;;;;;;6.55;5.82;;;7.30;99.90;;;;;;5047914;28;20036;-43
2022/04/04 12:49:35;;;;;;;8.55;5.72;;;7.30;99.90;;;;;;5026591;28;20060;-43
2022/04/04 12:52:06;;;;;;;6.45;5.85;;;7.30;99.90;;;;;;5034991;28;20045;-43
2022/04/04 12:54:36;;;;;;;6.57;5.50;;;7.40;99.90;;;;;;5044868;28;20028;-43
2022/04/04 12:57:08;;;;;;;7.10;6.40;;;7.30;99.90;;;;;;5044475;28;20127;-44
2022/04/04 12:59:53;;;;;;;7.15;6.47;;;7.40;99.90;;;;;;5045591;28;20092;-43
2022/04/04 13:02:18;;;;;;;6.07;5.47;;;7.40;99.90;;;;;;5046150;28;20020;-43
2022/04/04 13:04:44;;;;;;;6.55;5.95;;;7.40;99.90;;;;;;5045678;28;20028;-43
2022/04/04 13:07:20;;;;;;;7.32;6.60;;;7.40;99.90;;;;;;5045812;28;20027;-44
2022/04/04 13:09:54;;;;;;;7.40;6.20;;;7.40;99.90;;;;;;5045452;28;20410;-43
2022/04/04 13:12:27;;;;;;;6.85;6.15;;;7.50;99.90;;;;;;5045722;28;20024;-44